Thursday, April 17, 2014
01:13 UTC
  |  Log In   |  Register Free
Airport Search:

Newnan Coweta County Airport
(KCCO)

Newnan Coweta County Airport Diagram
No Airport Diagram Available

FAA data valid effective April 3, 2014 until May 29, 2014 (unless otherwise noted).

 
 
 
 
 
 
 
 
 
 
 
 
 
 

Current Aviation Weather for Newnan Coweta County Airport (KCCO)

The most recent METAR observation for KCCO was updated at: 0035 UTC
METAR Summary (Translated METAR)
KCCO
170035Z AUTO 10004KT 10SM CLR 13/01 A3023 RMK AO2 T01260013
KFFC
(10.3 nm NE from KCCO)
170053Z AUTO 00000KT 10SM CLR 12/00 A3025 RMK AO2 SLP246 T01170000
TAF
No TAF information found within 50 nm of KCCO
  Airport Weather Conditions for KCCO

 Current Weather at CCO
58° F
Fair
East winds at 5.8 mph
CCO NOAA Radar

Pressure: 30.22 in
Humidity: 39%
Wind: East at 5.8 MPH (5 KT)
Dew Point: 33.1°F
Visibility: 10.00 mi


Airport Weather Forecast for KCCO

Translated METAR and TAF for KCCO
Translated METAR for KCCO (0113 UTC 17 April 2014)
found at http://aviationweather.gov/adds/metars/
 
METAR text: KCCO 170055Z AUTO 10005KT 10SM CLR 12/02 A3023 RMK AO2 T01160017
Conditions at: KCCO (NEWNAN , GA, US) observed 0055 UTC 17 April 2014
Temperature: 11.6°C (53°F)
Dewpoint: 1.7°C (35°F) [RH = 51%]
Pressure (altimeter): 30.23 inches Hg (1023.8 mb)
Winds: from the E (100 degrees) at 6 MPH (5 knots; 2.6 m/s)
Visibility: 10 or more miles (16+ km)
Ceiling: at least 12,000 feet AGL
Clouds: sky clear below 12,000 feet AGL
Weather: automated observation with no human augmentation;
there may or may not be significant weather present at this time
Translated TAF for KCCO

There is no translated TAF available for this airport

Find All Airport Services Find A Hotel Find A Rental Car Find A Golf Course Find A Restaurant $100 Hamburger



FBO's on the Field
FBO Company Facility Photos Services Transportation Aviation Fuel Prices: Prices include tax
Catering Weather Repair Courtesy Rental Type 100LL JetA JetA+ MOGAS 8087
 
CCO Airport Services

This FBO has not yet been rated
FS:Shell
Last Updated: Apr-01
Login to update fuel prices
SS:
Contact CCO Airport ServicesMore FBO Information
 
Add another FBO Facility Photos Catering Weather Repair Courtesy Rental Type 100LL JetA JetA+ MOGAS 8087
Services Transportation Aviation Fuel Prices: Prices include tax


GlobalAir.com Airport Resource Center model-print
model-print
model-print
model-print